sensor_id;sensor_type;location;lat;lon;timestamp;P1;durP1;ratioP1;P2;durP2;ratioP2
80307;SDS011;69616;43.522;1.348;2024-02-04T00:01:17;26.85;;;12.45;;
80307;SDS011;69616;43.522;1.348;2024-02-04T00:03:42;26.10;;;11.80;;
80307;SDS011;69616;43.522;1.348;2024-02-04T00:06:08;21.07;;;10.37;;
80307;SDS011;69616;43.522;1.348;2024-02-04T00:08:33;23.20;;;10.53;;
80307;SDS011;69616;43.522;1.348;2024-02-04T00:10:58;23.63;;;10.63;;
80307;SDS011;69616;43.522;1.348;2024-02-04T00:13:24;21.67;;;11.03;;
80307;SDS011;69616;43.522;1.348;2024-02-04T00:15:49;26.83;;;11.27;;
80307;SDS011;69616;43.522;1.348;2024-02-04T00:18:15;23.80;;;10.70;;
80307;SDS011;69616;43.522;1.348;2024-02-04T00:20:40;25.13;;;11.15;;
80307;SDS011;69616;43.522;1.348;2024-02-04T00:23:06;25.07;;;11.77;;
80307;SDS011;69616;43.522;1.348;2024-02-04T00:25:31;25.30;;;11.00;;
80307;SDS011;69616;43.522;1.348;2024-02-04T00:27:56;20.70;;;10.13;;
80307;SDS011;69616;43.522;1.348;2024-02-04T00:30:22;30.77;;;10.73;;
80307;SDS011;69616;43.522;1.348;2024-02-04T00:32:47;23.80;;;10.25;;
80307;SDS011;69616;43.522;1.348;2024-02-04T00:35:12;22.57;;;9.93;;
80307;SDS011;69616;43.522;1.348;2024-02-04T00:37:38;21.67;;;10.40;;
80307;SDS011;69616;43.522;1.348;2024-02-04T00:40:03;22.33;;;10.53;;
80307;SDS011;69616;43.522;1.348;2024-02-04T00:42:29;20.52;;;9.95;;
80307;SDS011;69616;43.522;1.348;2024-02-04T00:44:55;20.97;;;9.77;;
80307;SDS011;69616;43.522;1.348;2024-02-04T00:47:20;16.87;;;8.40;;
80307;SDS011;69616;43.522;1.348;2024-02-04T00:49:45;18.40;;;8.50;;
80307;SDS011;69616;43.522;1.348;2024-02-04T00:52:11;21.47;;;8.60;;
80307;SDS011;69616;43.522;1.348;2024-02-04T00:54:37;17.73;;;8.90;;
80307;SDS011;69616;43.522;1.348;2024-02-04T00:57:02;19.53;;;9.43;;
80307;SDS011;69616;43.522;1.348;2024-02-04T00:59:28;17.67;;;8.67;;
80307;SDS011;69616;43.522;1.348;2024-02-04T01:01:53;18.83;;;8.73;;
80307;SDS011;69616;43.522;1.348;2024-02-04T01:04:20;21.80;;;9.25;;
80307;SDS011;69616;43.522;1.348;2024-02-04T01:06:48;20.23;;;9.18;;
80307;SDS011;69616;43.522;1.348;2024-02-04T01:09:13;22.23;;;9.90;;
80307;SDS011;69616;43.522;1.348;2024-02-04T01:11:38;21.73;;;10.17;;
80307;SDS011;69616;43.522;1.348;2024-02-04T01:14:04;23.50;;;10.80;;
80307;SDS011;69616;43.522;1.348;2024-02-04T01:16:29;25.33;;;11.40;;
80307;SDS011;69616;43.522;1.348;2024-02-04T01:18:54;22.77;;;10.77;;
80307;SDS011;69616;43.522;1.348;2024-02-04T01:21:20;24.47;;;11.83;;
80307;SDS011;69616;43.522;1.348;2024-02-04T01:23:45;27.73;;;12.20;;
80307;SDS011;69616;43.522;1.348;2024-02-04T01:26:11;31.67;;;11.75;;
80307;SDS011;69616;43.522;1.348;2024-02-04T01:28:36;25.37;;;11.90;;
80307;SDS011;69616;43.522;1.348;2024-02-04T01:31:01;27.83;;;12.53;;
80307;SDS011;69616;43.522;1.348;2024-02-04T01:33:27;32.93;;;13.80;;
80307;SDS011;69616;43.522;1.348;2024-02-04T01:35:52;32.60;;;13.33;;
80307;SDS011;69616;43.522;1.348;2024-02-04T01:38:18;31.20;;;13.23;;
80307;SDS011;69616;43.522;1.348;2024-02-04T01:40:43;35.23;;;13.97;;
80307;SDS011;69616;43.522;1.348;2024-02-04T01:43:11;32.05;;;13.45;;
80307;SDS011;69616;43.522;1.348;2024-02-04T01:45:36;34.00;;;14.53;;
80307;SDS011;69616;43.522;1.348;2024-02-04T01:48:02;33.30;;;14.43;;
80307;SDS011;69616;43.522;1.348;2024-02-04T01:50:28;36.08;;;15.45;;
80307;SDS011;69616;43.522;1.348;2024-02-04T01:52:56;36.13;;;15.35;;
80307;SDS011;69616;43.522;1.348;2024-02-04T01:55:22;37.73;;;15.07;;
80307;SDS011;69616;43.522;1.348;2024-02-04T01:57:48;39.67;;;16.40;;
80307;SDS011;69616;43.522;1.348;2024-02-04T02:00:15;37.38;;;15.52;;
80307;SDS011;69616;43.522;1.348;2024-02-04T02:02:40;38.37;;;15.23;;
80307;SDS011;69616;43.522;1.348;2024-02-04T02:05:07;40.95;;;16.63;;
80307;SDS011;69616;43.522;1.348;2024-02-04T02:07:34;37.63;;;15.52;;
80307;SDS011;69616;43.522;1.348;2024-02-04T02:09:59;37.27;;;15.13;;
80307;SDS011;69616;43.522;1.348;2024-02-04T02:12:25;37.93;;;15.10;;
80307;SDS011;69616;43.522;1.348;2024-02-04T02:18:00;37.90;;;14.60;;
80307;SDS011;69616;43.522;1.348;2024-02-04T02:20:40;39.33;;;14.75;;
80307;SDS011;69616;43.522;1.348;2024-02-04T02:23:21;34.47;;;15.27;;
80307;SDS011;69616;43.522;1.348;2024-02-04T02:25:54;38.10;;;15.85;;
80307;SDS011;69616;43.522;1.348;2024-02-04T02:28:21;39.20;;;15.65;;
80307;SDS011;69616;43.522;1.348;2024-02-04T02:30:46;41.20;;;15.40;;
80307;SDS011;69616;43.522;1.348;2024-02-04T02:33:12;36.23;;;14.13;;
80307;SDS011;69616;43.522;1.348;2024-02-04T02:35:37;38.67;;;15.77;;
80307;SDS011;69616;43.522;1.348;2024-02-04T02:40:49;41.07;;;15.57;;
80307;SDS011;69616;43.522;1.348;2024-02-04T02:43:19;42.72;;;17.02;;
80307;SDS011;69616;43.522;1.348;2024-02-04T02:45:46;42.50;;;15.80;;
80307;SDS011;69616;43.522;1.348;2024-02-04T02:48:11;41.00;;;15.68;;
80307;SDS011;69616;43.522;1.348;2024-02-04T02:50:38;38.87;;;16.17;;
80307;SDS011;69616;43.522;1.348;2024-02-04T02:53:03;37.63;;;15.45;;
80307;SDS011;69616;43.522;1.348;2024-02-04T02:55:29;45.20;;;17.83;;
80307;SDS011;69616;43.522;1.348;2024-02-04T02:57:54;42.80;;;16.87;;
80307;SDS011;69616;43.522;1.348;2024-02-04T03:00:20;46.37;;;17.10;;
80307;SDS011;69616;43.522;1.348;2024-02-04T03:02:46;47.20;;;17.80;;
80307;SDS011;69616;43.522;1.348;2024-02-04T03:05:11;47.20;;;17.20;;
80307;SDS011;69616;43.522;1.348;2024-02-04T03:07:37;41.65;;;16.85;;
80307;SDS011;69616;43.522;1.348;2024-02-04T03:10:03;40.63;;;16.17;;
80307;SDS011;69616;43.522;1.348;2024-02-04T03:12:29;54.73;;;20.57;;
80307;SDS011;69616;43.522;1.348;2024-02-04T03:14:54;52.28;;;19.25;;
80307;SDS011;69616;43.522;1.348;2024-02-04T03:17:19;45.17;;;17.90;;
80307;SDS011;69616;43.522;1.348;2024-02-04T03:19:47;47.03;;;18.30;;
80307;SDS011;69616;43.522;1.348;2024-02-04T03:22:13;47.13;;;17.45;;
80307;SDS011;69616;43.522;1.348;2024-02-04T03:24:38;46.17;;;18.53;;
80307;SDS011;69616;43.522;1.348;2024-02-04T03:27:03;47.33;;;17.53;;
80307;SDS011;69616;43.522;1.348;2024-02-04T03:29:29;47.70;;;18.10;;
80307;SDS011;69616;43.522;1.348;2024-02-04T03:31:55;48.83;;;19.00;;
80307;SDS011;69616;43.522;1.348;2024-02-04T03:34:21;45.38;;;18.80;;
80307;SDS011;69616;43.522;1.348;2024-02-04T03:36:46;46.78;;;17.85;;
80307;SDS011;69616;43.522;1.348;2024-02-04T03:39:12;44.00;;;16.70;;
80307;SDS011;69616;43.522;1.348;2024-02-04T03:41:37;52.87;;;18.47;;
80307;SDS011;69616;43.522;1.348;2024-02-04T03:44:02;51.10;;;19.03;;
80307;SDS011;69616;43.522;1.348;2024-02-04T03:46:28;47.40;;;17.80;;
80307;SDS011;69616;43.522;1.348;2024-02-04T03:48:53;43.50;;;17.17;;
80307;SDS011;69616;43.522;1.348;2024-02-04T03:51:19;42.07;;;16.47;;
80307;SDS011;69616;43.522;1.348;2024-02-04T03:53:44;45.63;;;16.90;;
80307;SDS011;69616;43.522;1.348;2024-02-04T03:56:10;43.63;;;16.35;;
80307;SDS011;69616;43.522;1.348;2024-02-04T03:58:36;43.00;;;16.43;;
80307;SDS011;69616;43.522;1.348;2024-02-04T04:01:01;43.47;;;16.17;;
80307;SDS011;69616;43.522;1.348;2024-02-04T04:03:26;43.50;;;17.27;;
80307;SDS011;69616;43.522;1.348;2024-02-04T04:05:55;43.83;;;17.20;;
80307;SDS011;69616;43.522;1.348;2024-02-04T04:08:21;44.65;;;16.35;;
80307;SDS011;69616;43.522;1.348;2024-02-04T04:10:46;46.17;;;17.40;;
80307;SDS011;69616;43.522;1.348;2024-02-04T04:13:12;46.30;;;18.67;;
80307;SDS011;69616;43.522;1.348;2024-02-04T04:15:38;47.08;;;18.63;;
80307;SDS011;69616;43.522;1.348;2024-02-04T04:18:04;47.85;;;18.73;;
80307;SDS011;69616;43.522;1.348;2024-02-04T04:20:29;46.97;;;16.88;;
80307;SDS011;69616;43.522;1.348;2024-02-04T04:22:55;44.40;;;18.03;;
80307;SDS011;69616;43.522;1.348;2024-02-04T04:25:20;49.20;;;18.20;;
80307;SDS011;69616;43.522;1.348;2024-02-04T04:27:45;44.03;;;17.30;;
80307;SDS011;69616;43.522;1.348;2024-02-04T04:30:11;50.40;;;18.10;;
80307;SDS011;69616;43.522;1.348;2024-02-04T04:32:37;50.20;;;19.10;;
80307;SDS011;69616;43.522;1.348;2024-02-04T04:35:02;52.03;;;18.77;;
80307;SDS011;69616;43.522;1.348;2024-02-04T04:37:28;49.75;;;18.05;;
80307;SDS011;69616;43.522;1.348;2024-02-04T04:39:53;52.43;;;19.40;;
80307;SDS011;69616;43.522;1.348;2024-02-04T04:42:18;48.67;;;17.93;;
80307;SDS011;69616;43.522;1.348;2024-02-04T04:44:44;44.27;;;17.30;;
80307;SDS011;69616;43.522;1.348;2024-02-04T04:47:09;47.10;;;17.27;;
80307;SDS011;69616;43.522;1.348;2024-02-04T04:49:35;53.07;;;17.87;;
80307;SDS011;69616;43.522;1.348;2024-02-04T04:52:00;49.50;;;19.63;;
80307;SDS011;69616;43.522;1.348;2024-02-04T04:54:27;54.87;;;21.23;;
80307;SDS011;69616;43.522;1.348;2024-02-04T04:56:53;60.10;;;22.00;;
80307;SDS011;69616;43.522;1.348;2024-02-04T04:59:18;58.17;;;20.40;;
80307;SDS011;69616;43.522;1.348;2024-02-04T05:01:49;50.42;;;19.13;;
80307;SDS011;69616;43.522;1.348;2024-02-04T05:04:16;54.53;;;20.27;;
80307;SDS011;69616;43.522;1.348;2024-02-04T05:06:42;56.85;;;19.70;;
80307;SDS011;69616;43.522;1.348;2024-02-04T05:09:07;50.47;;;19.60;;
80307;SDS011;69616;43.522;1.348;2024-02-04T05:11:33;53.53;;;19.17;;
80307;SDS011;69616;43.522;1.348;2024-02-04T05:13:59;52.63;;;20.10;;
80307;SDS011;69616;43.522;1.348;2024-02-04T05:16:24;41.47;;;16.73;;
80307;SDS011;69616;43.522;1.348;2024-02-04T05:18:49;44.43;;;16.57;;
80307;SDS011;69616;43.522;1.348;2024-02-04T05:21:15;43.20;;;16.90;;
80307;SDS011;69616;43.522;1.348;2024-02-04T05:23:41;42.58;;;16.05;;
80307;SDS011;69616;43.522;1.348;2024-02-04T05:26:06;39.40;;;15.90;;
80307;SDS011;69616;43.522;1.348;2024-02-04T05:28:32;40.33;;;15.33;;
80307;SDS011;69616;43.522;1.348;2024-02-04T05:30:57;38.80;;;15.43;;
80307;SDS011;69616;43.522;1.348;2024-02-04T05:33:23;34.40;;;14.40;;
80307;SDS011;69616;43.522;1.348;2024-02-04T05:35:48;33.93;;;12.90;;
80307;SDS011;69616;43.522;1.348;2024-02-04T05:38:14;32.92;;;14.30;;
80307;SDS011;69616;43.522;1.348;2024-02-04T05:40:40;35.37;;;14.63;;
80307;SDS011;69616;43.522;1.348;2024-02-04T05:43:06;30.07;;;11.93;;
80307;SDS011;69616;43.522;1.348;2024-02-04T05:45:38;28.13;;;10.33;;
80307;SDS011;69616;43.522;1.348;2024-02-04T05:48:06;25.63;;;9.85;;
80307;SDS011;69616;43.522;1.348;2024-02-04T05:50:32;26.30;;;9.77;;
80307;SDS011;69616;43.522;1.348;2024-02-04T05:52:58;26.23;;;10.47;;
80307;SDS011;69616;43.522;1.348;2024-02-04T05:55:23;26.20;;;9.77;;
80307;SDS011;69616;43.522;1.348;2024-02-04T05:57:49;20.73;;;8.48;;
80307;SDS011;69616;43.522;1.348;2024-02-04T06:00:14;19.30;;;7.80;;
80307;SDS011;69616;43.522;1.348;2024-02-04T06:02:40;19.77;;;8.35;;
80307;SDS011;69616;43.522;1.348;2024-02-04T06:05:08;17.83;;;7.50;;
80307;SDS011;69616;43.522;1.348;2024-02-04T06:07:34;22.20;;;9.10;;
80307;SDS011;69616;43.522;1.348;2024-02-04T06:09:59;21.77;;;8.40;;
80307;SDS011;69616;43.522;1.348;2024-02-04T06:12:25;25.63;;;9.15;;
80307;SDS011;69616;43.522;1.348;2024-02-04T06:14:50;21.70;;;8.57;;
80307;SDS011;69616;43.522;1.348;2024-02-04T06:17:16;21.27;;;9.10;;
80307;SDS011;69616;43.522;1.348;2024-02-04T06:19:41;21.10;;;9.57;;
80307;SDS011;69616;43.522;1.348;2024-02-04T06:22:07;28.63;;;10.40;;
80307;SDS011;69616;43.522;1.348;2024-02-04T06:24:32;28.07;;;10.57;;
80307;SDS011;69616;43.522;1.348;2024-02-04T06:26:57;26.33;;;10.17;;
80307;SDS011;69616;43.522;1.348;2024-02-04T06:29:23;26.43;;;10.70;;
80307;SDS011;69616;43.522;1.348;2024-02-04T06:31:48;23.77;;;10.00;;
80307;SDS011;69616;43.522;1.348;2024-02-04T06:34:14;27.67;;;10.23;;
80307;SDS011;69616;43.522;1.348;2024-02-04T06:36:42;29.95;;;11.35;;
80307;SDS011;69616;43.522;1.348;2024-02-04T06:39:09;36.87;;;13.27;;
80307;SDS011;69616;43.522;1.348;2024-02-04T06:41:35;33.90;;;13.15;;
80307;SDS011;69616;43.522;1.348;2024-02-04T06:44:01;37.27;;;13.33;;
80307;SDS011;69616;43.522;1.348;2024-02-04T06:46:30;34.72;;;13.57;;
80307;SDS011;69616;43.522;1.348;2024-02-04T06:48:55;35.83;;;13.90;;
80307;SDS011;69616;43.522;1.348;2024-02-04T06:51:21;34.73;;;12.93;;
80307;SDS011;69616;43.522;1.348;2024-02-04T06:53:46;35.58;;;13.50;;
80307;SDS011;69616;43.522;1.348;2024-02-04T06:56:12;40.47;;;14.77;;
80307;SDS011;69616;43.522;1.348;2024-02-04T06:58:38;45.47;;;15.88;;
80307;SDS011;69616;43.522;1.348;2024-02-04T07:01:04;43.05;;;15.85;;
80307;SDS011;69616;43.522;1.348;2024-02-04T07:03:32;50.70;;;19.02;;
80307;SDS011;69616;43.522;1.348;2024-02-04T07:05:58;47.87;;;17.83;;
80307;SDS011;69616;43.522;1.348;2024-02-04T07:08:25;52.13;;;19.25;;
80307;SDS011;69616;43.522;1.348;2024-02-04T07:10:51;51.43;;;17.30;;
80307;SDS011;69616;43.522;1.348;2024-02-04T07:13:17;51.28;;;17.67;;
80307;SDS011;69616;43.522;1.348;2024-02-04T07:15:43;48.97;;;17.95;;
80307;SDS011;69616;43.522;1.348;2024-02-04T07:18:09;54.00;;;19.77;;
80307;SDS011;69616;43.522;1.348;2024-02-04T07:20:34;51.23;;;18.40;;
80307;SDS011;69616;43.522;1.348;2024-02-04T07:23:00;52.60;;;17.80;;
80307;SDS011;69616;43.522;1.348;2024-02-04T07:25:25;51.10;;;17.43;;
80307;SDS011;69616;43.522;1.348;2024-02-04T07:27:50;51.90;;;17.40;;
80307;SDS011;69616;43.522;1.348;2024-02-04T07:30:16;54.67;;;18.50;;
80307;SDS011;69616;43.522;1.348;2024-02-04T07:32:42;51.85;;;18.17;;
80307;SDS011;69616;43.522;1.348;2024-02-04T07:35:07;52.80;;;18.00;;
80307;SDS011;69616;43.522;1.348;2024-02-04T07:37:34;48.55;;;16.95;;
80307;SDS011;69616;43.522;1.348;2024-02-04T07:40:00;53.35;;;19.17;;
80307;SDS011;69616;43.522;1.348;2024-02-04T07:42:26;53.20;;;18.15;;
80307;SDS011;69616;43.522;1.348;2024-02-04T07:44:52;53.87;;;18.83;;
80307;SDS011;69616;43.522;1.348;2024-02-04T07:47:17;50.70;;;16.70;;
80307;SDS011;69616;43.522;1.348;2024-02-04T07:49:44;54.53;;;18.10;;
80307;SDS011;69616;43.522;1.348;2024-02-04T07:52:10;50.45;;;18.25;;
80307;SDS011;69616;43.522;1.348;2024-02-04T07:54:35;50.90;;;16.70;;
80307;SDS011;69616;43.522;1.348;2024-02-04T07:57:00;45.87;;;16.00;;
80307;SDS011;69616;43.522;1.348;2024-02-04T07:59:26;49.37;;;17.33;;
80307;SDS011;69616;43.522;1.348;2024-02-04T08:01:51;51.97;;;16.60;;
80307;SDS011;69616;43.522;1.348;2024-02-04T08:04:16;44.72;;;16.15;;
80307;SDS011;69616;43.522;1.348;2024-02-04T08:06:42;51.47;;;19.07;;
80307;SDS011;69616;43.522;1.348;2024-02-04T08:09:07;55.03;;;18.30;;
80307;SDS011;69616;43.522;1.348;2024-02-04T08:11:33;51.80;;;18.05;;
80307;SDS011;69616;43.522;1.348;2024-02-04T08:13:58;50.27;;;17.23;;
80307;SDS011;69616;43.522;1.348;2024-02-04T08:16:25;47.90;;;17.23;;
80307;SDS011;69616;43.522;1.348;2024-02-04T08:18:50;56.13;;;19.03;;
80307;SDS011;69616;43.522;1.348;2024-02-04T08:21:16;48.20;;;17.97;;
80307;SDS011;69616;43.522;1.348;2024-02-04T08:23:41;50.88;;;17.52;;
80307;SDS011;69616;43.522;1.348;2024-02-04T08:26:06;55.03;;;18.47;;
80307;SDS011;69616;43.522;1.348;2024-02-04T08:28:32;58.10;;;20.47;;
80307;SDS011;69616;43.522;1.348;2024-02-04T08:30:57;56.30;;;20.57;;
80307;SDS011;69616;43.522;1.348;2024-02-04T08:33:23;52.47;;;18.50;;
80307;SDS011;69616;43.522;1.348;2024-02-04T08:35:48;58.30;;;19.30;;
80307;SDS011;69616;43.522;1.348;2024-02-04T08:38:14;49.37;;;17.87;;
80307;SDS011;69616;43.522;1.348;2024-02-04T08:40:39;52.17;;;17.20;;
80307;SDS011;69616;43.522;1.348;2024-02-04T08:43:05;55.10;;;17.60;;
80307;SDS011;69616;43.522;1.348;2024-02-04T08:45:30;50.57;;;17.50;;
80307;SDS011;69616;43.522;1.348;2024-02-04T08:47:55;48.03;;;17.33;;
80307;SDS011;69616;43.522;1.348;2024-02-04T08:50:21;45.13;;;15.90;;
80307;SDS011;69616;43.522;1.348;2024-02-04T08:52:46;47.37;;;16.30;;
80307;SDS011;69616;43.522;1.348;2024-02-04T08:55:12;43.78;;;15.93;;
80307;SDS011;69616;43.522;1.348;2024-02-04T08:57:37;40.57;;;14.87;;
80307;SDS011;69616;43.522;1.348;2024-02-04T09:00:03;48.40;;;17.10;;
80307;SDS011;69616;43.522;1.348;2024-02-04T09:02:28;45.75;;;16.40;;
80307;SDS011;69616;43.522;1.348;2024-02-04T09:04:54;42.67;;;15.63;;
80307;SDS011;69616;43.522;1.348;2024-02-04T09:07:19;43.75;;;15.10;;
80307;SDS011;69616;43.522;1.348;2024-02-04T09:09:45;40.30;;;14.80;;
80307;SDS011;69616;43.522;1.348;2024-02-04T09:12:10;44.27;;;16.07;;
80307;SDS011;69616;43.522;1.348;2024-02-04T09:14:36;41.33;;;14.60;;
80307;SDS011;69616;43.522;1.348;2024-02-04T09:17:02;47.40;;;17.23;;
80307;SDS011;69616;43.522;1.348;2024-02-04T09:19:29;38.70;;;14.65;;
80307;SDS011;69616;43.522;1.348;2024-02-04T09:21:56;44.87;;;15.87;;
80307;SDS011;69616;43.522;1.348;2024-02-04T09:24:21;39.28;;;14.80;;
80307;SDS011;69616;43.522;1.348;2024-02-04T09:26:47;37.97;;;14.73;;
80307;SDS011;69616;43.522;1.348;2024-02-04T09:29:12;38.73;;;14.50;;
80307;SDS011;69616;43.522;1.348;2024-02-04T09:31:38;36.73;;;14.40;;
80307;SDS011;69616;43.522;1.348;2024-02-04T09:34:03;31.50;;;12.40;;
80307;SDS011;69616;43.522;1.348;2024-02-04T09:36:29;35.70;;;13.17;;
80307;SDS011;69616;43.522;1.348;2024-02-04T09:38:54;34.67;;;12.55;;
80307;SDS011;69616;43.522;1.348;2024-02-04T09:41:20;29.90;;;12.00;;
80307;SDS011;69616;43.522;1.348;2024-02-04T09:43:48;31.40;;;11.63;;
80307;SDS011;69616;43.522;1.348;2024-02-04T09:46:15;27.30;;;11.33;;
80307;SDS011;69616;43.522;1.348;2024-02-04T09:48:42;34.05;;;11.98;;
80307;SDS011;69616;43.522;1.348;2024-02-04T09:51:09;31.23;;;11.38;;
80307;SDS011;69616;43.522;1.348;2024-02-04T09:53:35;30.20;;;11.73;;
80307;SDS011;69616;43.522;1.348;2024-02-04T09:56:04;25.38;;;10.32;;
80307;SDS011;69616;43.522;1.348;2024-02-04T09:58:34;26.65;;;11.20;;
80307;SDS011;69616;43.522;1.348;2024-02-04T10:01:00;21.73;;;8.83;;
80307;SDS011;69616;43.522;1.348;2024-02-04T10:03:25;19.90;;;8.68;;
80307;SDS011;69616;43.522;1.348;2024-02-04T10:05:51;18.85;;;8.45;;
80307;SDS011;69616;43.522;1.348;2024-02-04T10:08:17;17.77;;;7.70;;
80307;SDS011;69616;43.522;1.348;2024-02-04T10:10:43;18.55;;;8.20;;
80307;SDS011;69616;43.522;1.348;2024-02-04T10:13:08;17.97;;;7.67;;
80307;SDS011;69616;43.522;1.348;2024-02-04T10:15:34;18.75;;;8.07;;
80307;SDS011;69616;43.522;1.348;2024-02-04T10:18:04;19.02;;;8.68;;
80307;SDS011;69616;43.522;1.348;2024-02-04T10:20:30;15.93;;;7.33;;
80307;SDS011;69616;43.522;1.348;2024-02-04T10:22:56;15.35;;;7.00;;
80307;SDS011;69616;43.522;1.348;2024-02-04T10:25:22;12.73;;;6.10;;
80307;SDS011;69616;43.522;1.348;2024-02-04T10:27:47;12.88;;;6.50;;
80307;SDS011;69616;43.522;1.348;2024-02-04T10:30:13;13.97;;;6.90;;
80307;SDS011;69616;43.522;1.348;2024-02-04T10:32:39;14.05;;;6.75;;
80307;SDS011;69616;43.522;1.348;2024-02-04T10:35:05;13.70;;;6.47;;
80307;SDS011;69616;43.522;1.348;2024-02-04T10:37:30;12.47;;;6.03;;
80307;SDS011;69616;43.522;1.348;2024-02-04T10:39:56;12.90;;;6.45;;
80307;SDS011;69616;43.522;1.348;2024-02-04T10:42:25;12.20;;;5.77;;
80307;SDS011;69616;43.522;1.348;2024-02-04T10:44:51;12.55;;;7.43;;
80307;SDS011;69616;43.522;1.348;2024-02-04T10:47:22;12.75;;;6.30;;
80307;SDS011;69616;43.522;1.348;2024-02-04T10:49:52;11.95;;;5.80;;
80307;SDS011;69616;43.522;1.348;2024-02-04T10:52:21;13.17;;;5.90;;
80307;SDS011;69616;43.522;1.348;2024-02-04T10:54:50;11.93;;;6.25;;
80307;SDS011;69616;43.522;1.348;2024-02-04T10:57:20;12.95;;;5.97;;
80307;SDS011;69616;43.522;1.348;2024-02-04T10:59:48;12.95;;;6.28;;
80307;SDS011;69616;43.522;1.348;2024-02-04T11:02:16;15.13;;;7.50;;
80307;SDS011;69616;43.522;1.348;2024-02-04T11:04:42;14.30;;;7.10;;
80307;SDS011;69616;43.522;1.348;2024-02-04T11:07:10;14.05;;;7.68;;
80307;SDS011;69616;43.522;1.348;2024-02-04T11:09:37;12.00;;;6.22;;
80307;SDS011;69616;43.522;1.348;2024-02-04T11:12:03;13.13;;;6.10;;
80307;SDS011;69616;43.522;1.348;2024-02-04T11:14:34;12.40;;;6.13;;
80307;SDS011;69616;43.522;1.348;2024-02-04T11:22:48;12.40;;;6.13;;
80307;SDS011;69616;43.522;1.348;2024-02-04T11:25:39;11.20;;;6.23;;
80307;SDS011;69616;43.522;1.348;2024-02-04T11:28:13;12.52;;;6.93;;
80307;SDS011;69616;43.522;1.348;2024-02-04T11:30:40;12.10;;;6.72;;
80307;SDS011;69616;43.522;1.348;2024-02-04T11:33:09;12.27;;;6.43;;
80307;SDS011;69616;43.522;1.348;2024-02-04T11:35:36;17.00;;;8.43;;
80307;SDS011;69616;43.522;1.348;2024-02-04T11:38:05;15.60;;;8.37;;
80307;SDS011;69616;43.522;1.348;2024-02-04T11:40:31;12.82;;;6.72;;
80307;SDS011;69616;43.522;1.348;2024-02-04T11:43:12;14.93;;;7.07;;
80307;SDS011;69616;43.522;1.348;2024-02-04T11:45:42;14.87;;;7.40;;
80307;SDS011;69616;43.522;1.348;2024-02-04T11:48:09;15.13;;;7.50;;
80307;SDS011;69616;43.522;1.348;2024-02-04T11:50:35;14.38;;;7.28;;
80307;SDS011;69616;43.522;1.348;2024-02-04T11:53:05;14.13;;;6.88;;
80307;SDS011;69616;43.522;1.348;2024-02-04T11:55:31;19.15;;;9.60;;
80307;SDS011;69616;43.522;1.348;2024-02-04T11:57:58;17.57;;;8.70;;
80307;SDS011;69616;43.522;1.348;2024-02-04T12:00:25;26.45;;;10.63;;
80307;SDS011;69616;43.522;1.348;2024-02-04T12:03:00;20.13;;;10.40;;
80307;SDS011;69616;43.522;1.348;2024-02-04T12:05:27;22.70;;;10.80;;
80307;SDS011;69616;43.522;1.348;2024-02-04T12:07:54;25.95;;;12.13;;
80307;SDS011;69616;43.522;1.348;2024-02-04T12:10:19;26.27;;;12.47;;
80307;SDS011;69616;43.522;1.348;2024-02-04T12:12:45;26.83;;;12.15;;
80307;SDS011;69616;43.522;1.348;2024-02-04T12:15:11;24.63;;;11.77;;
80307;SDS011;69616;43.522;1.348;2024-02-04T12:17:38;32.05;;;14.02;;
80307;SDS011;69616;43.522;1.348;2024-02-04T12:20:04;32.03;;;14.37;;
80307;SDS011;69616;43.522;1.348;2024-02-04T12:22:30;28.52;;;13.45;;
80307;SDS011;69616;43.522;1.348;2024-02-04T12:24:57;28.20;;;12.82;;
80307;SDS011;69616;43.522;1.348;2024-02-04T12:27:22;29.15;;;13.10;;
80307;SDS011;69616;43.522;1.348;2024-02-04T12:29:50;27.13;;;12.90;;
80307;SDS011;69616;43.522;1.348;2024-02-04T12:32:17;30.55;;;13.95;;
80307;SDS011;69616;43.522;1.348;2024-02-04T12:34:47;31.27;;;14.23;;
80307;SDS011;69616;43.522;1.348;2024-02-04T12:37:13;34.97;;;15.30;;
80307;SDS011;69616;43.522;1.348;2024-02-04T12:39:39;35.42;;;14.85;;
80307;SDS011;69616;43.522;1.348;2024-02-04T12:42:04;35.67;;;17.20;;
80307;SDS011;69616;43.522;1.348;2024-02-04T12:44:30;33.88;;;15.68;;
80307;SDS011;69616;43.522;1.348;2024-02-04T12:46:56;37.67;;;16.13;;
80307;SDS011;69616;43.522;1.348;2024-02-04T12:49:22;33.25;;;15.85;;
80307;SDS011;69616;43.522;1.348;2024-02-04T12:51:48;40.20;;;17.37;;
80307;SDS011;69616;43.522;1.348;2024-02-04T12:54:14;43.28;;;19.13;;
80307;SDS011;69616;43.522;1.348;2024-02-04T12:59:11;42.35;;;18.08;;
80307;SDS011;69616;43.522;1.348;2024-02-04T13:01:51;43.67;;;18.17;;
80307;SDS011;69616;43.522;1.348;2024-02-04T13:04:17;40.63;;;18.27;;
80307;SDS011;69616;43.522;1.348;2024-02-04T13:06:42;44.38;;;18.73;;
80307;SDS011;69616;43.522;1.348;2024-02-04T13:09:08;42.57;;;19.13;;
80307;SDS011;69616;43.522;1.348;2024-02-04T13:11:34;46.33;;;19.40;;
80307;SDS011;69616;43.522;1.348;2024-02-04T13:13:59;47.70;;;19.45;;
80307;SDS011;69616;43.522;1.348;2024-02-04T13:16:24;51.43;;;22.13;;
80307;SDS011;69616;43.522;1.348;2024-02-04T13:18:53;49.17;;;21.50;;
80307;SDS011;69616;43.522;1.348;2024-02-04T13:21:18;54.33;;;22.80;;
80307;SDS011;69616;43.522;1.348;2024-02-04T13:23:46;52.88;;;22.05;;
80307;SDS011;69616;43.522;1.348;2024-02-04T13:26:13;58.25;;;21.63;;
80307;SDS011;69616;43.522;1.348;2024-02-04T13:28:39;61.60;;;23.40;;
80307;SDS011;69616;43.522;1.348;2024-02-04T13:31:04;62.05;;;23.90;;
80307;SDS011;69616;43.522;1.348;2024-02-04T13:33:30;64.73;;;25.10;;
80307;SDS011;69616;43.522;1.348;2024-02-04T13:35:55;66.03;;;24.57;;
80307;SDS011;69616;43.522;1.348;2024-02-04T13:38:21;66.32;;;25.73;;
80307;SDS011;69616;43.522;1.348;2024-02-04T13:40:49;58.77;;;23.77;;
80307;SDS011;69616;43.522;1.348;2024-02-04T13:43:14;57.03;;;22.87;;
80307;SDS011;69616;43.522;1.348;2024-02-04T13:45:39;63.00;;;24.90;;
80307;SDS011;69616;43.522;1.348;2024-02-04T13:48:05;60.47;;;23.73;;
80307;SDS011;69616;43.522;1.348;2024-02-04T13:50:31;60.83;;;23.67;;
80307;SDS011;69616;43.522;1.348;2024-02-04T13:52:56;68.60;;;23.83;;
80307;SDS011;69616;43.522;1.348;2024-02-04T13:55:23;62.85;;;23.70;;
80307;SDS011;69616;43.522;1.348;2024-02-04T13:57:48;61.17;;;23.43;;
80307;SDS011;69616;43.522;1.348;2024-02-04T14:00:14;64.67;;;23.73;;
80307;SDS011;69616;43.522;1.348;2024-02-04T14:02:39;63.97;;;23.42;;
80307;SDS011;69616;43.522;1.348;2024-02-04T14:05:05;64.47;;;26.47;;
80307;SDS011;69616;43.522;1.348;2024-02-04T14:07:31;66.13;;;24.58;;
80307;SDS011;69616;43.522;1.348;2024-02-04T14:09:56;61.60;;;23.30;;
80307;SDS011;69616;43.522;1.348;2024-02-04T14:12:21;63.17;;;23.03;;
80307;SDS011;69616;43.522;1.348;2024-02-04T14:14:47;70.83;;;25.50;;
80307;SDS011;69616;43.522;1.348;2024-02-04T14:17:12;71.40;;;24.08;;
80307;SDS011;69616;43.522;1.348;2024-02-04T14:19:38;64.23;;;24.03;;
80307;SDS011;69616;43.522;1.348;2024-02-04T14:22:04;64.65;;;24.30;;
80307;SDS011;69616;43.522;1.348;2024-02-04T14:24:29;61.50;;;22.23;;
80307;SDS011;69616;43.522;1.348;2024-02-04T14:26:58;52.03;;;20.77;;
80307;SDS011;69616;43.522;1.348;2024-02-04T14:29:24;64.90;;;23.27;;
80307;SDS011;69616;43.522;1.348;2024-02-04T14:31:53;66.68;;;24.35;;